createdAt,value
2023-01-01T00:01:11.122Z,49.92
2023-01-01T00:08:12.817Z,28.52
2023-01-01T00:15:14.566Z,28.35
2023-01-01T00:22:52.855Z,29.63
2023-01-01T00:29:37.889Z,28.02
2023-01-01T00:36:39.578Z,17.42
2023-01-01T00:43:41.231Z,15.73
2023-01-01T00:50:42.943Z,18.40
2023-01-01T00:57:44.593Z,21.17
2023-01-01T01:04:46.491Z,15.30
2023-01-01T01:11:48.186Z,9.82
2023-01-01T01:18:51.619Z,11.50
2023-01-01T01:25:53.258Z,12.13
2023-01-01T01:32:54.972Z,10.40
2023-01-01T01:39:56.687Z,13.65
2023-01-01T01:46:58.387Z,12.25
2023-01-01T01:54:02.341Z,9.02
2023-01-01T02:01:04.317Z,12.65
2023-01-01T02:08:06.297Z,13.75
2023-01-01T02:15:08.459Z,10.23
2023-01-01T02:22:15.194Z,12.40
2023-01-01T02:29:30.727Z,13.45
2023-01-01T02:36:33.205Z,9.60
2023-01-01T02:43:34.786Z,12.18
2023-01-01T02:50:36.584Z,14.48
2023-01-01T02:57:43.344Z,12.50
2023-01-01T03:05:01.457Z,11.02
2023-01-01T03:12:07.041Z,11.52
2023-01-01T03:19:12.090Z,12.57
2023-01-01T03:26:14.496Z,8.48
2023-01-01T03:33:18.867Z,10.65
2023-01-01T03:40:20.540Z,11.80
2023-01-01T03:47:22.176Z,10.68
2023-01-01T03:54:47.985Z,9.88
2023-01-01T04:01:53.718Z,10.50
2023-01-01T04:08:56.822Z,11.50
2023-01-01T04:15:58.531Z,11.38
2023-01-01T04:23:00.545Z,12.25
2023-01-01T04:30:02.245Z,25.63
2023-01-01T04:37:06.989Z,9.10
2023-01-01T04:44:12.973Z,15.45
2023-01-01T04:51:15.524Z,12.95
2023-01-01T04:58:17.564Z,9.73
2023-01-01T05:05:19.222Z,8.23
2023-01-01T05:12:20.900Z,12.93
2023-01-01T05:19:22.633Z,7.22
2023-01-01T05:26:27.107Z,7.93
2023-01-01T05:33:28.955Z,8.60
2023-01-01T05:40:30.959Z,12.27
2023-01-01T05:47:32.623Z,9.73
2023-01-01T05:54:34.288Z,9.48
2023-01-01T06:01:41.788Z,8.52
2023-01-01T06:08:54.081Z,6.53
2023-01-01T06:16:00.009Z,8.35
2023-01-01T06:23:01.676Z,15.25
2023-01-01T06:30:07.067Z,8.77
2023-01-01T06:37:08.802Z,7.35
2023-01-01T06:44:10.449Z,7.10
2023-01-01T06:51:15.583Z,10.57
2023-01-01T06:58:17.261Z,8.20
2023-01-01T07:05:18.929Z,7.82
2023-01-01T07:12:20.611Z,10.52
2023-01-01T07:19:22.243Z,8.57
2023-01-01T07:26:27.239Z,9.25
2023-01-01T07:33:28.844Z,9.02
2023-01-01T07:40:30.490Z,13.10
2023-01-01T07:47:32.919Z,12.95
2023-01-01T07:54:34.535Z,8.02
2023-01-01T08:01:37.371Z,7.55
2023-01-01T08:08:39.538Z,8.93
2023-01-01T08:15:41.312Z,13.60
2023-01-01T08:22:43.024Z,10.80
2023-01-01T08:29:44.812Z,12.20
2023-01-01T08:36:46.435Z,9.95
2023-01-01T08:43:48.169Z,11.48
2023-01-01T08:50:56.565Z,8.88
2023-01-01T08:57:58.298Z,10.23
2023-01-01T09:04:59.915Z,7.78
2023-01-01T09:12:05.801Z,11.20
2023-01-01T09:19:07.453Z,10.45
2023-01-01T09:26:09.689Z,9.48
2023-01-01T09:33:11.321Z,10.63
2023-01-01T09:40:31.712Z,10.55
2023-01-01T09:47:37.203Z,9.68
2023-01-01T09:54:41.333Z,8.98
2023-01-01T10:02:04.286Z,12.35
2023-01-01T10:09:32.614Z,10.55
2023-01-01T10:16:45.602Z,7.47
2023-01-01T10:24:02.777Z,7.40
2023-01-01T10:31:15.724Z,9.90
2023-01-01T10:38:24.738Z,8.73
2023-01-01T10:45:35.242Z,7.63
2023-01-01T10:52:39.715Z,9.15
2023-01-01T10:59:45.601Z,7.35
2023-01-01T11:06:51.754Z,10.05
2023-01-01T11:13:54.424Z,11.40
2023-01-01T11:20:56.765Z,14.13
2023-01-01T11:28:20.296Z,8.75
2023-01-01T11:35:23.830Z,15.35
2023-01-01T11:42:34.643Z,10.95
2023-01-01T11:49:37.050Z,7.38
2023-01-01T11:56:53.510Z,6.68
2023-01-01T12:04:08.225Z,9.40
2023-01-01T12:11:21.467Z,6.95
2023-01-01T12:18:37.484Z,8.55
2023-01-01T12:25:40.523Z,12.02
2023-01-01T12:33:07.829Z,7.68
2023-01-01T12:40:40.603Z,10.05
2023-01-01T12:47:59.367Z,8.15
2023-01-01T12:55:36.411Z,8.00
2023-01-01T13:02:38.182Z,9.68
2023-01-01T13:09:45.192Z,8.73
2023-01-01T13:16:50.559Z,9.73
2023-01-01T13:23:52.263Z,12.32
2023-01-01T13:30:53.975Z,16.90
2023-01-01T13:37:56.720Z,9.95
2023-01-01T13:44:58.365Z,14.15
2023-01-01T13:52:21.877Z,11.52
2023-01-01T13:59:46.037Z,8.02
2023-01-01T14:06:49.457Z,9.52
2023-01-01T14:13:51.123Z,9.95
2023-01-01T14:20:52.981Z,9.02
2023-01-01T14:27:55.353Z,9.90
2023-01-01T14:35:01.671Z,9.38
2023-01-01T14:42:15.421Z,9.40
2023-01-01T14:49:19.767Z,8.45
2023-01-01T14:56:30.298Z,9.68
2023-01-01T15:03:31.925Z,32.30
2023-01-01T15:10:35.279Z,10.25
2023-01-01T15:17:54.982Z,13.07
2023-01-01T15:24:56.986Z,14.27
2023-01-01T15:32:01.097Z,14.93
2023-01-01T15:39:02.803Z,13.57
2023-01-01T15:46:22.177Z,9.52
2023-01-01T15:53:31.782Z,13.60
2023-01-01T16:00:38.492Z,12.27
2023-01-01T16:07:40.122Z,10.48
2023-01-01T16:14:41.789Z,14.13
2023-01-01T16:21:43.467Z,20.42
2023-01-01T16:28:45.161Z,18.27
2023-01-01T16:35:47.088Z,14.50
2023-01-01T16:42:48.752Z,11.23
2023-01-01T16:49:50.421Z,11.20
2023-01-01T16:56:52.095Z,10.23
2023-01-01T17:03:53.849Z,10.25
2023-01-01T17:11:10.896Z,23.25
2023-01-01T17:18:13.459Z,11.60
2023-01-01T17:25:15.210Z,15.18
2023-01-01T17:32:16.882Z,11.25
2023-01-01T17:39:18.528Z,19.77
2023-01-01T17:46:22.177Z,13.35
2023-01-01T17:53:23.839Z,38.22
2023-01-01T18:00:25.442Z,23.90
2023-01-01T18:07:27.168Z,32.42
2023-01-01T18:14:28.952Z,23.00
2023-01-01T18:21:30.813Z,19.30
2023-01-01T18:28:32.825Z,19.85
2023-01-01T18:35:34.468Z,18.38
2023-01-01T18:42:43.707Z,16.92
2023-01-01T18:50:02.941Z,18.13
2023-01-01T18:57:07.608Z,15.48
2023-01-01T19:04:10.720Z,14.88
2023-01-01T19:11:12.575Z,15.68
2023-01-01T19:18:19.457Z,14.50
2023-01-01T19:25:37.104Z,16.63
2023-01-01T19:32:38.939Z,13.02
2023-01-01T19:39:40.638Z,11.52
2023-01-01T19:46:42.398Z,10.93
2023-01-01T19:53:44.172Z,10.80
2023-01-01T20:00:45.944Z,11.10
2023-01-01T20:07:47.658Z,13.43
2023-01-01T20:14:50.161Z,10.00
2023-01-01T20:22:10.627Z,9.35
2023-01-01T20:29:21.352Z,13.02
2023-01-01T20:36:41.537Z,12.90
2023-01-01T20:43:43.286Z,11.98
2023-01-01T20:50:44.977Z,13.48
2023-01-01T20:57:46.575Z,13.95
2023-01-01T21:04:48.445Z,14.18
2023-01-01T21:11:50.115Z,10.02
2023-01-01T21:18:51.827Z,14.27
2023-01-01T21:25:53.398Z,13.50
2023-01-01T21:32:54.975Z,13.77
2023-01-01T21:39:56.629Z,9.63
2023-01-01T21:47:01.788Z,10.25
2023-01-01T21:54:09.747Z,9.63
2023-01-01T22:01:20.468Z,14.25
2023-01-01T22:08:25.220Z,13.18
2023-01-01T22:15:35.310Z,11.38
2023-01-01T22:29:38.809Z,10.57
2023-01-01T22:36:40.477Z,9.70
2023-01-01T22:43:43.132Z,11.38
2023-01-01T22:50:44.987Z,9.75
2023-01-01T22:57:47.074Z,10.85
2023-01-01T23:04:48.691Z,10.13
2023-01-01T23:11:50.558Z,12.18
2023-01-01T23:18:52.268Z,16.67
2023-01-01T23:25:53.925Z,12.27
2023-01-01T23:32:55.623Z,10.38
2023-01-01T23:39:57.243Z,10.40
2023-01-01T23:46:59.241Z,10.50
2023-01-01T23:54:00.950Z,10.77
